sensor_id;sensor_type;location;lat;lon;timestamp;temperature;humidity
54576;DHT22;40472;53.486;14.542;2022-09-03T00:01:04;10.90;99.90
54576;DHT22;40472;53.486;14.542;2022-09-03T00:03:38;10.90;99.90
54576;DHT22;40472;53.486;14.542;2022-09-03T00:11:38;10.90;99.90
54576;DHT22;40472;53.486;14.542;2022-09-03T00:14:15;10.90;99.90
54576;DHT22;40472;53.486;14.542;2022-09-03T00:17:13;10.90;99.90
54576;DHT22;40472;53.486;14.542;2022-09-03T00:19:47;10.80;99.90
54576;DHT22;40472;53.486;14.542;2022-09-03T00:22:22;10.80;99.90
54576;DHT22;40472;53.486;14.542;2022-09-03T00:24:51;10.80;99.90
54576;DHT22;40472;53.486;14.542;2022-09-03T00:27:20;10.80;99.90
54576;DHT22;40472;53.486;14.542;2022-09-03T00:30:17;10.80;99.90
54576;DHT22;40472;53.486;14.542;2022-09-03T00:33:03;10.80;99.90
54576;DHT22;40472;53.486;14.542;2022-09-03T00:35:42;10.80;99.90
54576;DHT22;40472;53.486;14.542;2022-09-03T00:38:09;10.80;99.90
54576;DHT22;40472;53.486;14.542;2022-09-03T00:43:26;10.80;99.90
54576;DHT22;40472;53.486;14.542;2022-09-03T00:46:12;10.80;99.90
54576;DHT22;40472;53.486;14.542;2022-09-03T00:56:55;10.70;99.90
54576;DHT22;40472;53.486;14.542;2022-09-03T01:02:30;10.60;99.90
54576;DHT22;40472;53.486;14.542;2022-09-03T01:10:26;10.50;99.90
54576;DHT22;40472;53.486;14.542;2022-09-03T01:26:29;10.80;99.90
54576;DHT22;40472;53.486;14.542;2022-09-03T01:32:21;10.80;99.90
54576;DHT22;40472;53.486;14.542;2022-09-03T01:40:17;10.70;99.90
54576;DHT22;40472;53.486;14.542;2022-09-03T01:57:00;10.60;99.90
54576;DHT22;40472;53.486;14.542;2022-09-03T02:00:04;10.50;99.90
54576;DHT22;40472;53.486;14.542;2022-09-03T02:02:30;10.40;99.90
54576;DHT22;40472;53.486;14.542;2022-09-03T02:07:36;10.50;99.90
54576;DHT22;40472;53.486;14.542;2022-09-03T02:10:48;10.40;99.90
54576;DHT22;40472;53.486;14.542;2022-09-03T02:13:03;10.40;99.90
54576;DHT22;40472;53.486;14.542;2022-09-03T02:15:30;10.40;99.90
54576;DHT22;40472;53.486;14.542;2022-09-03T02:17:59;10.30;99.90
54576;DHT22;40472;53.486;14.542;2022-09-03T02:20:27;10.30;99.90
54576;DHT22;40472;53.486;14.542;2022-09-03T02:22:55;10.20;99.90
54576;DHT22;40472;53.486;14.542;2022-09-03T02:25:25;10.20;99.90
54576;DHT22;40472;53.486;14.542;2022-09-03T02:27:54;10.20;99.90
54576;DHT22;40472;53.486;14.542;2022-09-03T02:30:20;10.10;99.90
54576;DHT22;40472;53.486;14.542;2022-09-03T02:32:46;10.10;99.90
54576;DHT22;40472;53.486;14.542;2022-09-03T02:35:13;10.10;99.90
54576;DHT22;40472;53.486;14.542;2022-09-03T02:37:39;10.10;99.90
54576;DHT22;40472;53.486;14.542;2022-09-03T02:40:05;10.10;99.90
54576;DHT22;40472;53.486;14.542;2022-09-03T02:42:34;10.10;99.90
54576;DHT22;40472;53.486;14.542;2022-09-03T02:45:13;10.20;99.90
54576;DHT22;40472;53.486;14.542;2022-09-03T02:47:43;10.20;99.90
54576;DHT22;40472;53.486;14.542;2022-09-03T02:50:09;10.30;99.90
54576;DHT22;40472;53.486;14.542;2022-09-03T02:52:35;10.30;99.90
54576;DHT22;40472;53.486;14.542;2022-09-03T02:55:01;10.30;99.90
54576;DHT22;40472;53.486;14.542;2022-09-03T02:57:27;10.30;99.90
54576;DHT22;40472;53.486;14.542;2022-09-03T02:59:53;10.20;99.90
54576;DHT22;40472;53.486;14.542;2022-09-03T03:02:19;10.20;99.90
54576;DHT22;40472;53.486;14.542;2022-09-03T03:04:45;10.20;99.90
54576;DHT22;40472;53.486;14.542;2022-09-03T03:07:11;10.30;99.90
54576;DHT22;40472;53.486;14.542;2022-09-03T03:09:36;10.30;99.90
54576;DHT22;40472;53.486;14.542;2022-09-03T03:12:02;10.40;99.90
54576;DHT22;40472;53.486;14.542;2022-09-03T03:14:28;10.40;99.90
54576;DHT22;40472;53.486;14.542;2022-09-03T03:16:54;10.40;99.90
54576;DHT22;40472;53.486;14.542;2022-09-03T03:19:20;10.40;99.90
54576;DHT22;40472;53.486;14.542;2022-09-03T03:21:46;10.30;99.90
54576;DHT22;40472;53.486;14.542;2022-09-03T03:24:11;10.30;99.90
54576;DHT22;40472;53.486;14.542;2022-09-03T03:26:37;10.30;99.90
54576;DHT22;40472;53.486;14.542;2022-09-03T03:29:03;10.30;99.90
54576;DHT22;40472;53.486;14.542;2022-09-03T03:31:29;10.40;99.90
54576;DHT22;40472;53.486;14.542;2022-09-03T03:33:57;10.40;99.90
54576;DHT22;40472;53.486;14.542;2022-09-03T03:36:25;10.30;99.90
54576;DHT22;40472;53.486;14.542;2022-09-03T03:38:56;10.30;99.90
54576;DHT22;40472;53.486;14.542;2022-09-03T03:41:27;10.20;99.90
54576;DHT22;40472;53.486;14.542;2022-09-03T03:43:56;10.20;99.90
54576;DHT22;40472;53.486;14.542;2022-09-03T03:46:23;10.10;99.90
54576;DHT22;40472;53.486;14.542;2022-09-03T03:48:51;10.10;99.90
54576;DHT22;40472;53.486;14.542;2022-09-03T03:51:18;10.10;99.90
54576;DHT22;40472;53.486;14.542;2022-09-03T03:53:45;10.10;99.90
54576;DHT22;40472;53.486;14.542;2022-09-03T03:56:13;10.00;99.90
54576;DHT22;40472;53.486;14.542;2022-09-03T03:58:40;9.90;99.90
54576;DHT22;40472;53.486;14.542;2022-09-03T04:01:21;10.00;99.90
54576;DHT22;40472;53.486;14.542;2022-09-03T04:03:47;9.90;99.90
54576;DHT22;40472;53.486;14.542;2022-09-03T04:06:16;9.90;99.90
54576;DHT22;40472;53.486;14.542;2022-09-03T04:08:44;9.90;99.90
54576;DHT22;40472;53.486;14.542;2022-09-03T04:11:13;10.00;99.90
54576;DHT22;40472;53.486;14.542;2022-09-03T04:13:41;10.10;99.90
54576;DHT22;40472;53.486;14.542;2022-09-03T04:16:18;10.00;99.90
54576;DHT22;40472;53.486;14.542;2022-09-03T04:18:45;10.00;99.90
54576;DHT22;40472;53.486;14.542;2022-09-03T04:21:16;10.00;99.90
54576;DHT22;40472;53.486;14.542;2022-09-03T04:23:44;10.00;99.90
54576;DHT22;40472;53.486;14.542;2022-09-03T04:26:12;10.00;99.90
54576;DHT22;40472;53.486;14.542;2022-09-03T04:28:38;10.00;99.90
54576;DHT22;40472;53.486;14.542;2022-09-03T04:31:08;10.00;99.90
54576;DHT22;40472;53.486;14.542;2022-09-03T04:33:35;10.00;99.90
54576;DHT22;40472;53.486;14.542;2022-09-03T04:36:11;10.00;99.90
54576;DHT22;40472;53.486;14.542;2022-09-03T04:38:39;10.10;99.90
54576;DHT22;40472;53.486;14.542;2022-09-03T04:41:06;10.10;99.90
54576;DHT22;40472;53.486;14.542;2022-09-03T04:43:32;10.20;99.90
54576;DHT22;40472;53.486;14.542;2022-09-03T04:46:00;10.20;99.90
54576;DHT22;40472;53.486;14.542;2022-09-03T04:48:27;10.20;99.90
54576;DHT22;40472;53.486;14.542;2022-09-03T04:50:53;10.20;99.90
54576;DHT22;40472;53.486;14.542;2022-09-03T04:53:20;10.20;99.90
54576;DHT22;40472;53.486;14.542;2022-09-03T04:55:46;10.20;99.90
54576;DHT22;40472;53.486;14.542;2022-09-03T04:58:12;10.30;99.90
54576;DHT22;40472;53.486;14.542;2022-09-03T05:00:38;10.30;99.90
54576;DHT22;40472;53.486;14.542;2022-09-03T05:03:04;10.30;99.90
54576;DHT22;40472;53.486;14.542;2022-09-03T05:05:33;10.40;99.90
54576;DHT22;40472;53.486;14.542;2022-09-03T05:07:59;10.40;99.90
54576;DHT22;40472;53.486;14.542;2022-09-03T05:10:28;10.40;99.90
54576;DHT22;40472;53.486;14.542;2022-09-03T05:15:24;10.40;99.90
54576;DHT22;40472;53.486;14.542;2022-09-03T05:17:55;10.50;99.90
54576;DHT22;40472;53.486;14.542;2022-09-03T05:20:21;10.50;99.90
54576;DHT22;40472;53.486;14.542;2022-09-03T05:22:47;10.50;99.90
54576;DHT22;40472;53.486;14.542;2022-09-03T05:25:13;10.50;99.90
54576;DHT22;40472;53.486;14.542;2022-09-03T05:27:39;10.60;99.90
54576;DHT22;40472;53.486;14.542;2022-09-03T05:30:05;10.70;99.90
54576;DHT22;40472;53.486;14.542;2022-09-03T05:32:31;10.70;99.90
54576;DHT22;40472;53.486;14.542;2022-09-03T05:34:57;10.80;99.90
54576;DHT22;40472;53.486;14.542;2022-09-03T05:37:23;10.80;99.90
54576;DHT22;40472;53.486;14.542;2022-09-03T05:39:48;10.90;99.90
54576;DHT22;40472;53.486;14.542;2022-09-03T05:42:14;11.00;99.90
54576;DHT22;40472;53.486;14.542;2022-09-03T05:44:40;11.00;99.90
54576;DHT22;40472;53.486;14.542;2022-09-03T05:47:05;11.00;99.90
54576;DHT22;40472;53.486;14.542;2022-09-03T05:49:31;11.10;99.90
54576;DHT22;40472;53.486;14.542;2022-09-03T05:51:57;11.20;99.90
54576;DHT22;40472;53.486;14.542;2022-09-03T05:54:23;11.20;99.90
54576;DHT22;40472;53.486;14.542;2022-09-03T05:56:48;11.30;99.90
54576;DHT22;40472;53.486;14.542;2022-09-03T05:59:14;11.40;99.90
54576;DHT22;40472;53.486;14.542;2022-09-03T06:01:42;11.50;99.90
54576;DHT22;40472;53.486;14.542;2022-09-03T06:04:13;11.50;99.90
54576;DHT22;40472;53.486;14.542;2022-09-03T06:06:41;11.60;99.90
54576;DHT22;40472;53.486;14.542;2022-09-03T06:09:10;11.70;99.90
54576;DHT22;40472;53.486;14.542;2022-09-03T06:11:38;11.80;99.90
54576;DHT22;40472;53.486;14.542;2022-09-03T06:14:06;11.80;99.90
54576;DHT22;40472;53.486;14.542;2022-09-03T06:16:35;11.80;99.90
54576;DHT22;40472;53.486;14.542;2022-09-03T06:19:03;11.80;99.90
54576;DHT22;40472;53.486;14.542;2022-09-03T06:21:35;11.80;99.90
54576;DHT22;40472;53.486;14.542;2022-09-03T06:24:01;11.90;99.90
54576;DHT22;40472;53.486;14.542;2022-09-03T06:26:28;12.00;99.90
54576;DHT22;40472;53.486;14.542;2022-09-03T06:28:54;12.10;99.90
54576;DHT22;40472;53.486;14.542;2022-09-03T06:31:21;12.10;99.90
54576;DHT22;40472;53.486;14.542;2022-09-03T06:33:47;12.20;99.90
54576;DHT22;40472;53.486;14.542;2022-09-03T06:36:17;12.30;99.90
54576;DHT22;40472;53.486;14.542;2022-09-03T06:38:45;12.30;99.90
54576;DHT22;40472;53.486;14.542;2022-09-03T06:41:16;12.30;99.90
54576;DHT22;40472;53.486;14.542;2022-09-03T06:43:46;12.40;99.90
54576;DHT22;40472;53.486;14.542;2022-09-03T06:46:18;12.40;99.90
54576;DHT22;40472;53.486;14.542;2022-09-03T06:48:44;12.40;99.90
54576;DHT22;40472;53.486;14.542;2022-09-03T06:51:22;12.50;99.90
54576;DHT22;40472;53.486;14.542;2022-09-03T06:53:50;12.60;99.90
54576;DHT22;40472;53.486;14.542;2022-09-03T06:56:21;12.70;99.90
54576;DHT22;40472;53.486;14.542;2022-09-03T06:58:55;12.70;99.90
54576;DHT22;40472;53.486;14.542;2022-09-03T07:01:28;12.80;99.90
54576;DHT22;40472;53.486;14.542;2022-09-03T07:03:57;12.90;99.90
54576;DHT22;40472;53.486;14.542;2022-09-03T07:06:30;12.90;99.90
54576;DHT22;40472;53.486;14.542;2022-09-03T07:08:57;13.10;99.90
54576;DHT22;40472;53.486;14.542;2022-09-03T07:11:26;13.20;99.90
54576;DHT22;40472;53.486;14.542;2022-09-03T07:13:54;13.20;99.90
54576;DHT22;40472;53.486;14.542;2022-09-03T07:16:26;13.30;99.90
54576;DHT22;40472;53.486;14.542;2022-09-03T07:18:52;13.40;99.90
54576;DHT22;40472;53.486;14.542;2022-09-03T07:21:23;13.40;99.90
54576;DHT22;40472;53.486;14.542;2022-09-03T07:23:50;13.50;99.90
54576;DHT22;40472;53.486;14.542;2022-09-03T07:26:24;13.70;99.90
54576;DHT22;40472;53.486;14.542;2022-09-03T07:28:52;13.80;99.90
54576;DHT22;40472;53.486;14.542;2022-09-03T07:31:29;13.80;99.90
54576;DHT22;40472;53.486;14.542;2022-09-03T07:34:01;13.90;99.90
54576;DHT22;40472;53.486;14.542;2022-09-03T07:36:34;14.10;99.90
54576;DHT22;40472;53.486;14.542;2022-09-03T07:39:02;14.10;99.90
54576;DHT22;40472;53.486;14.542;2022-09-03T07:41:28;14.20;99.90
54576;DHT22;40472;53.486;14.542;2022-09-03T07:43:58;14.30;99.90
54576;DHT22;40472;53.486;14.542;2022-09-03T07:46:26;14.50;99.90
54576;DHT22;40472;53.486;14.542;2022-09-03T07:48:56;14.60;99.90
54576;DHT22;40472;53.486;14.542;2022-09-03T07:51:25;14.60;99.90
54576;DHT22;40472;53.486;14.542;2022-09-03T07:53:53;14.60;99.90
54576;DHT22;40472;53.486;14.542;2022-09-03T07:56:19;14.70;99.90
54576;DHT22;40472;53.486;14.542;2022-09-03T07:58:45;14.70;99.90
54576;DHT22;40472;53.486;14.542;2022-09-03T08:01:14;14.70;99.90
54576;DHT22;40472;53.486;14.542;2022-09-03T08:03:46;14.80;99.90
54576;DHT22;40472;53.486;14.542;2022-09-03T08:06:13;14.90;99.90
54576;DHT22;40472;53.486;14.542;2022-09-03T08:08:39;15.00;99.90
54576;DHT22;40472;53.486;14.542;2022-09-03T08:11:07;15.00;99.90
54576;DHT22;40472;53.486;14.542;2022-09-03T08:13:47;15.10;99.90
54576;DHT22;40472;53.486;14.542;2022-09-03T08:16:16;15.20;99.90
54576;DHT22;40472;53.486;14.542;2022-09-03T08:18:46;15.30;99.90
54576;DHT22;40472;53.486;14.542;2022-09-03T08:21:17;15.30;99.90
54576;DHT22;40472;53.486;14.542;2022-09-03T08:23:48;15.30;99.90
54576;DHT22;40472;53.486;14.542;2022-09-03T08:26:16;15.30;99.90
54576;DHT22;40472;53.486;14.542;2022-09-03T08:28:42;15.40;99.90
54576;DHT22;40472;53.486;14.542;2022-09-03T08:31:18;15.60;99.90
54576;DHT22;40472;53.486;14.542;2022-09-03T08:33:47;15.60;99.90
54576;DHT22;40472;53.486;14.542;2022-09-03T08:36:18;15.70;99.90
54576;DHT22;40472;53.486;14.542;2022-09-03T08:38:49;15.80;99.90
54576;DHT22;40472;53.486;14.542;2022-09-03T08:47:16;16.00;99.90
54576;DHT22;40472;53.486;14.542;2022-09-03T08:55:11;16.40;99.90
54576;DHT22;40472;53.486;14.542;2022-09-03T08:57:52;16.40;99.90
54576;DHT22;40472;53.486;14.542;2022-09-03T09:06:50;16.50;99.90
54576;DHT22;40472;53.486;14.542;2022-09-03T09:14:35;16.80;99.90
54576;DHT22;40472;53.486;14.542;2022-09-03T09:22:48;17.00;99.90
54576;DHT22;40472;53.486;14.542;2022-09-03T09:25:21;17.10;99.90
54576;DHT22;40472;53.486;14.542;2022-09-03T09:28:00;17.20;99.90
54576;DHT22;40472;53.486;14.542;2022-09-03T09:30:27;17.30;99.90
54576;DHT22;40472;53.486;14.542;2022-09-03T09:32:53;17.30;99.90
54576;DHT22;40472;53.486;14.542;2022-09-03T09:35:20;17.30;99.90
54576;DHT22;40472;53.486;14.542;2022-09-03T09:37:57;17.40;99.90
54576;DHT22;40472;53.486;14.542;2022-09-03T09:40:34;17.40;99.90
54576;DHT22;40472;53.486;14.542;2022-09-03T09:45:32;17.30;99.90
54576;DHT22;40472;53.486;14.542;2022-09-03T09:47:59;17.40;99.90
54576;DHT22;40472;53.486;14.542;2022-09-03T09:50:25;17.50;99.90
54576;DHT22;40472;53.486;14.542;2022-09-03T09:53:08;17.50;99.90
54576;DHT22;40472;53.486;14.542;2022-09-03T09:55:56;17.60;99.90
54576;DHT22;40472;53.486;14.542;2022-09-03T09:58:25;17.60;99.90
54576;DHT22;40472;53.486;14.542;2022-09-03T10:01:13;17.70;99.90
54576;DHT22;40472;53.486;14.542;2022-09-03T10:03:57;17.80;99.90
54576;DHT22;40472;53.486;14.542;2022-09-03T10:06:27;17.70;99.90
54576;DHT22;40472;53.486;14.542;2022-09-03T10:09:18;17.90;99.90
54576;DHT22;40472;53.486;14.542;2022-09-03T10:11:51;18.00;99.90
54576;DHT22;40472;53.486;14.542;2022-09-03T10:14:28;18.00;99.90
54576;DHT22;40472;53.486;14.542;2022-09-03T10:17:15;18.00;99.90
54576;DHT22;40472;53.486;14.542;2022-09-03T10:22:46;18.40;99.90
54576;DHT22;40472;53.486;14.542;2022-09-03T10:25:15;18.60;99.90
54576;DHT22;40472;53.486;14.542;2022-09-03T10:27:42;18.60;99.90
54576;DHT22;40472;53.486;14.542;2022-09-03T10:30:12;18.50;99.90
54576;DHT22;40472;53.486;14.542;2022-09-03T10:32:54;18.50;99.90
54576;DHT22;40472;53.486;14.542;2022-09-03T10:35:51;18.50;99.90
54576;DHT22;40472;53.486;14.542;2022-09-03T10:44:30;18.40;99.90
54576;DHT22;40472;53.486;14.542;2022-09-03T10:47:29;18.50;99.90
54576;DHT22;40472;53.486;14.542;2022-09-03T10:55:57;19.20;99.90
54576;DHT22;40472;53.486;14.542;2022-09-03T11:01:05;19.20;99.90
54576;DHT22;40472;53.486;14.542;2022-09-03T11:03:47;19.20;99.90
54576;DHT22;40472;53.486;14.542;2022-09-03T11:06:20;19.10;99.90
54576;DHT22;40472;53.486;14.542;2022-09-03T11:09:16;19.20;99.80
54576;DHT22;40472;53.486;14.542;2022-09-03T11:12:05;19.40;99.90
54576;DHT22;40472;53.486;14.542;2022-09-03T11:14:55;19.60;99.90
54576;DHT22;40472;53.486;14.542;2022-09-03T11:17:28;19.70;99.90
54576;DHT22;40472;53.486;14.542;2022-09-03T11:22:34;20.20;98.20
54576;DHT22;40472;53.486;14.542;2022-09-03T11:25:01;20.20;99.00
54576;DHT22;40472;53.486;14.542;2022-09-03T11:30:23;19.90;99.20
54576;DHT22;40472;53.486;14.542;2022-09-03T11:32:57;19.80;98.80
54576;DHT22;40472;53.486;14.542;2022-09-03T11:40:38;20.10;99.00
54576;DHT22;40472;53.486;14.542;2022-09-03T11:48:47;19.60;99.90
54576;DHT22;40472;53.486;14.542;2022-09-03T11:51:28;19.70;99.80
54576;DHT22;40472;53.486;14.542;2022-09-03T11:54:01;19.90;99.90
54576;DHT22;40472;53.486;14.542;2022-09-03T11:56:28;19.80;99.90
54576;DHT22;40472;53.486;14.542;2022-09-03T12:01:42;19.40;99.10
54576;DHT22;40472;53.486;14.542;2022-09-03T12:04:13;19.60;99.50
54576;DHT22;40472;53.486;14.542;2022-09-03T12:07:02;19.70;99.90
54576;DHT22;40472;53.486;14.542;2022-09-03T12:21:00;19.50;98.50
54576;DHT22;40472;53.486;14.542;2022-09-03T12:23:30;19.00;98.30
54576;DHT22;40472;53.486;14.542;2022-09-03T12:26:03;19.00;99.10
54576;DHT22;40472;53.486;14.542;2022-09-03T12:28:29;19.10;98.60
54576;DHT22;40472;53.486;14.542;2022-09-03T12:31:26;19.20;99.90
54576;DHT22;40472;53.486;14.542;2022-09-03T12:34:07;19.40;99.10
54576;DHT22;40472;53.486;14.542;2022-09-03T12:36:39;19.60;99.70
54576;DHT22;40472;53.486;14.542;2022-09-03T12:39:22;19.50;99.00
54576;DHT22;40472;53.486;14.542;2022-09-03T12:44:28;19.30;97.80
54576;DHT22;40472;53.486;14.542;2022-09-03T12:47:14;19.20;98.60
54576;DHT22;40472;53.486;14.542;2022-09-03T12:49:50;19.10;98.80
54576;DHT22;40472;53.486;14.542;2022-09-03T12:52:29;19.00;98.80
54576;DHT22;40472;53.486;14.542;2022-09-03T12:55:04;19.20;99.00
54576;DHT22;40472;53.486;14.542;2022-09-03T12:57:46;19.00;98.40
54576;DHT22;40472;53.486;14.542;2022-09-03T13:00:15;19.20;99.60
54576;DHT22;40472;53.486;14.542;2022-09-03T13:03:09;19.20;98.60
54576;DHT22;40472;53.486;14.542;2022-09-03T13:05:42;19.30;98.70
54576;DHT22;40472;53.486;14.542;2022-09-03T13:08:14;19.20;98.20
54576;DHT22;40472;53.486;14.542;2022-09-03T13:10:42;19.20;97.90
54576;DHT22;40472;53.486;14.542;2022-09-03T13:13:22;19.50;98.30
54576;DHT22;40472;53.486;14.542;2022-09-03T13:16:28;19.70;96.90
54576;DHT22;40472;53.486;14.542;2022-09-03T13:27:25;19.80;96.70
54576;DHT22;40472;53.486;14.542;2022-09-03T13:33:12;20.10;96.80
54576;DHT22;40472;53.486;14.542;2022-09-03T13:35:48;20.10;96.80
54576;DHT22;40472;53.486;14.542;2022-09-03T13:40:59;19.80;96.30
54576;DHT22;40472;53.486;14.542;2022-09-03T13:46:05;19.80;96.50
54576;DHT22;40472;53.486;14.542;2022-09-03T13:48:37;19.80;96.70
54576;DHT22;40472;53.486;14.542;2022-09-03T13:51:45;19.80;96.50
54576;DHT22;40472;53.486;14.542;2022-09-03T13:54:30;19.50;96.60
54576;DHT22;40472;53.486;14.542;2022-09-03T13:59:45;19.40;97.50
54576;DHT22;40472;53.486;14.542;2022-09-03T14:05:16;19.30;96.90
54576;DHT22;40472;53.486;14.542;2022-09-03T14:12:49;19.80;96.50
54576;DHT22;40472;53.486;14.542;2022-09-03T14:18:11;19.90;96.80
54576;DHT22;40472;53.486;14.542;2022-09-03T14:20:58;19.80;97.00
54576;DHT22;40472;53.486;14.542;2022-09-03T14:26:06;19.30;97.90
54576;DHT22;40472;53.486;14.542;2022-09-03T14:28:48;19.60;96.70
54576;DHT22;40472;53.486;14.542;2022-09-03T14:39:57;20.00;98.00
54576;DHT22;40472;53.486;14.542;2022-09-03T14:45:49;19.80;95.50
54576;DHT22;40472;53.486;14.542;2022-09-03T14:51:20;20.10;96.90
54576;DHT22;40472;53.486;14.542;2022-09-03T14:54:17;20.10;95.80
54576;DHT22;40472;53.486;14.542;2022-09-03T15:02:57;20.70;94.80
54576;DHT22;40472;53.486;14.542;2022-09-03T15:11:08;20.40;94.50
54576;DHT22;40472;53.486;14.542;2022-09-03T15:13:44;20.20;93.50
54576;DHT22;40472;53.486;14.542;2022-09-03T15:17:12;20.30;94.30
54576;DHT22;40472;53.486;14.542;2022-09-03T15:19:27;20.30;93.90
54576;DHT22;40472;53.486;14.542;2022-09-03T15:22:23;19.90;94.20
54576;DHT22;40472;53.486;14.542;2022-09-03T15:25:27;19.90;96.50
54576;DHT22;40472;53.486;14.542;2022-09-03T15:32:06;19.80;95.70
54576;DHT22;40472;53.486;14.542;2022-09-03T15:36:37;19.40;95.60
54576;DHT22;40472;53.486;14.542;2022-09-03T15:39:17;19.50;97.30
54576;DHT22;40472;53.486;14.542;2022-09-03T15:41:56;19.70;97.00
54576;DHT22;40472;53.486;14.542;2022-09-03T15:44:24;19.70;96.20
54576;DHT22;40472;53.486;14.542;2022-09-03T15:46:59;19.70;96.30
54576;DHT22;40472;53.486;14.542;2022-09-03T15:52:31;19.80;95.60
54576;DHT22;40472;53.486;14.542;2022-09-03T15:55:13;19.60;95.80
54576;DHT22;40472;53.486;14.542;2022-09-03T15:57:52;19.40;96.20
54576;DHT22;40472;53.486;14.542;2022-09-03T16:03:11;19.00;96.10
54576;DHT22;40472;53.486;14.542;2022-09-03T16:05:51;18.80;98.40
54576;DHT22;40472;53.486;14.542;2022-09-03T16:14:15;18.80;98.40
54576;DHT22;40472;53.486;14.542;2022-09-03T16:19:49;18.90;98.10
54576;DHT22;40472;53.486;14.542;2022-09-03T16:22:45;19.00;99.10
54576;DHT22;40472;53.486;14.542;2022-09-03T16:25:19;18.70;97.80
54576;DHT22;40472;53.486;14.542;2022-09-03T16:27:59;18.60;98.10
54576;DHT22;40472;53.486;14.542;2022-09-03T16:30:54;18.40;98.80
54576;DHT22;40472;53.486;14.542;2022-09-03T16:36:15;17.90;99.70
54576;DHT22;40472;53.486;14.542;2022-09-03T16:39:01;17.80;99.90
54576;DHT22;40472;53.486;14.542;2022-09-03T16:42:38;17.70;99.90
54576;DHT22;40472;53.486;14.542;2022-09-03T16:44:58;17.70;99.90
54576;DHT22;40472;53.486;14.542;2022-09-03T16:47:39;17.50;99.90
54576;DHT22;40472;53.486;14.542;2022-09-03T16:53:01;17.30;99.90
54576;DHT22;40472;53.486;14.542;2022-09-03T17:23:43;16.10;99.90
54576;DHT22;40472;53.486;14.542;2022-09-03T17:42:53;16.00;99.90
54576;DHT22;40472;53.486;14.542;2022-09-03T17:45:39;15.90;99.90
54576;DHT22;40472;53.486;14.542;2022-09-03T17:51:11;15.70;99.90
54576;DHT22;40472;53.486;14.542;2022-09-03T17:53:45;15.60;99.90
54576;DHT22;40472;53.486;14.542;2022-09-03T17:56:53;15.60;99.90
54576;DHT22;40472;53.486;14.542;2022-09-03T18:02:19;15.40;99.90
54576;DHT22;40472;53.486;14.542;2022-09-03T18:04:58;15.30;99.90
54576;DHT22;40472;53.486;14.542;2022-09-03T18:07:36;15.30;99.90
54576;DHT22;40472;53.486;14.542;2022-09-03T18:15:48;15.20;99.90
54576;DHT22;40472;53.486;14.542;2022-09-03T18:18:26;15.20;99.90
54576;DHT22;40472;53.486;14.542;2022-09-03T18:20:56;15.20;99.90
54576;DHT22;40472;53.486;14.542;2022-09-03T18:23:49;15.20;99.90
54576;DHT22;40472;53.486;14.542;2022-09-03T18:26:40;15.20;99.90
54576;DHT22;40472;53.486;14.542;2022-09-03T18:30:09;15.20;99.90
54576;DHT22;40472;53.486;14.542;2022-09-03T18:32:55;15.20;99.90
54576;DHT22;40472;53.486;14.542;2022-09-03T18:35:42;15.20;99.90
54576;DHT22;40472;53.486;14.542;2022-09-03T18:38:29;15.10;99.90
54576;DHT22;40472;53.486;14.542;2022-09-03T18:41:34;15.20;99.90
54576;DHT22;40472;53.486;14.542;2022-09-03T18:50:44;15.20;99.90
54576;DHT22;40472;53.486;14.542;2022-09-03T18:57:06;15.10;99.90
54576;DHT22;40472;53.486;14.542;2022-09-03T19:06:11;15.00;99.90
54576;DHT22;40472;53.486;14.542;2022-09-03T19:12:11;15.00;99.90
54576;DHT22;40472;53.486;14.542;2022-09-03T19:24:12;14.80;99.90
54576;DHT22;40472;53.486;14.542;2022-09-03T19:27:55;14.80;99.90
54576;DHT22;40472;53.486;14.542;2022-09-03T19:33:14;14.80;99.90
54576;DHT22;40472;53.486;14.542;2022-09-03T19:36:29;14.70;99.90
54576;DHT22;40472;53.486;14.542;2022-09-03T19:46:02;14.40;99.90
54576;DHT22;40472;53.486;14.542;2022-09-03T19:54:49;14.20;99.90
54576;DHT22;40472;53.486;14.542;2022-09-03T19:57:36;14.20;99.90
54576;DHT22;40472;53.486;14.542;2022-09-03T20:00:21;14.20;99.90
54576;DHT22;40472;53.486;14.542;2022-09-03T20:03:06;14.10;99.90
54576;DHT22;40472;53.486;14.542;2022-09-03T20:05:52;14.10;99.90
54576;DHT22;40472;53.486;14.542;2022-09-03T20:08:37;14.00;99.90
54576;DHT22;40472;53.486;14.542;2022-09-03T20:11:22;13.90;99.90
54576;DHT22;40472;53.486;14.542;2022-09-03T20:13:50;13.80;99.90
54576;DHT22;40472;53.486;14.542;2022-09-03T20:16:36;13.80;99.90
54576;DHT22;40472;53.486;14.542;2022-09-03T20:19:20;13.80;99.90
54576;DHT22;40472;53.486;14.542;2022-09-03T20:24:59;13.80;99.90
54576;DHT22;40472;53.486;14.542;2022-09-03T20:27:51;13.70;99.90
54576;DHT22;40472;53.486;14.542;2022-09-03T20:30:21;13.70;99.90
54576;DHT22;40472;53.486;14.542;2022-09-03T20:33:04;13.60;99.90
54576;DHT22;40472;53.486;14.542;2022-09-03T20:35:42;13.50;99.90
54576;DHT22;40472;53.486;14.542;2022-09-03T20:44:32;13.50;99.90
54576;DHT22;40472;53.486;14.542;2022-09-03T20:55:28;13.40;99.90
54576;DHT22;40472;53.486;14.542;2022-09-03T21:00:44;13.40;99.90
54576;DHT22;40472;53.486;14.542;2022-09-03T21:03:23;13.30;99.90
54576;DHT22;40472;53.486;14.542;2022-09-03T21:06:34;13.30;99.90
54576;DHT22;40472;53.486;14.542;2022-09-03T21:09:22;13.20;99.90
54576;DHT22;40472;53.486;14.542;2022-09-03T21:15:02;13.10;99.90
54576;DHT22;40472;53.486;14.542;2022-09-03T21:26:09;13.10;99.90
54576;DHT22;40472;53.486;14.542;2022-09-03T21:28:44;13.10;99.90
54576;DHT22;40472;53.486;14.542;2022-09-03T21:31:31;13.10;99.90
54576;DHT22;40472;53.486;14.542;2022-09-03T21:35:07;13.20;99.90
54576;DHT22;40472;53.486;14.542;2022-09-03T21:36:58;13.20;99.90
54576;DHT22;40472;53.486;14.542;2022-09-03T21:39:32;13.20;99.90
54576;DHT22;40472;53.486;14.542;2022-09-03T21:45:11;13.30;99.90
54576;DHT22;40472;53.486;14.542;2022-09-03T21:47:42;13.30;99.90
54576;DHT22;40472;53.486;14.542;2022-09-03T21:50:49;13.30;99.90
54576;DHT22;40472;53.486;14.542;2022-09-03T21:59:22;13.40;99.90
54576;DHT22;40472;53.486;14.542;2022-09-03T22:04:25;13.40;99.90
54576;DHT22;40472;53.486;14.542;2022-09-03T22:07:11;13.40;99.90
54576;DHT22;40472;53.486;14.542;2022-09-03T22:15:01;13.40;99.90
54576;DHT22;40472;53.486;14.542;2022-09-03T22:17:53;13.30;99.90
54576;DHT22;40472;53.486;14.542;2022-09-03T22:20:25;13.30;99.90
54576;DHT22;40472;53.486;14.542;2022-09-03T22:23:09;13.30;99.90
54576;DHT22;40472;53.486;14.542;2022-09-03T22:25:50;13.30;99.90